首页
METAR-TAF:

METAR-TAF

机场 :

博韦, 法国

纬度: 49-28N, 经度: 002-07E, 海拔: 109米

当前天气观测

该预报发布于37分钟前的23:00 UTC
风速13节,风向
温度 13°C
湿度 82%
气压 1002 hPa
能见度10公里或以上
1500米以下无云,无积雨云

METAR: LFOB 032300Z AUTO 01013KT CAVOK 13/10 Q1002 NOSIG

时间: 01:37 (23:37 UTC)

预报

该预报发布于6小时和37分钟前的17:00 UTC
预报有效从03日的 18点(UTC)到 04日的 18点(UTC)
风速12节,风向
能见度10公里或以上
散云层高于3000英尺
几率 40% :
短暂存在
从 03日的 18点(UTC)到 03日的 23点(UTC)
风速20节,风向,有时为30节阵风
能見度: 3000
多云层高于3000英尺, 积雨云.
雷暴, 雨
几率 30% :
短暂存在
从 04日的 10点(UTC)到 04日的 15点(UTC)
风速15节,风向,有时为25节阵风
能見度: 4000
多云层高于3000英尺, 塔状积云.
阵雨
成为
从 04日的 16点(UTC)到 04日的 18点(UTC)
风速12节,风向西转西北

TAF: LFOB 031700Z 0318/0418 36012KT 9999 SCT030 PROB40 TEMPO 0318/0323 36020G30KT 3000 TSRA BKN030CB PROB30 TEMPO 0410/0415 36015G25KT 4000 SHRA BKN030TCU BECMG 0416/0418 30012KT

超过4000个机场的气象观测和天气预报(METAR&TAF报告)。

可查询的气象台以黄色和红色小点在地图上表示。

将鼠标移到小点上方,可查看气象台名称。

然后点击查看天气观测和预报。

如需切换地图:点击带黑十字的绿色按钮放大地图;点击带横线的绿色按钮缩小地图;或者点击绿色箭头查看邻近地区的地图。


METAR-TAF: